Pagrindinis puslapis
METAR-TAF:

METAR-TAF

Oro uostai :

Kalmaras, Švedija

platuma: 56-44N, ilguma: 016-18E, Aukštis: 16 m

Dabartinis oras

Ataskaita buvo paskelbta 31 minutes, ne 12:20 UTC
Vėjas 11 kt iš Vakarų/Šiaurės Vakarų
Temperatūra 6°C
Drėgmė 87%
Slėgis 1000 hPa
Matomumas 10 km arba daugiau
Mažai debesys ne aukštis 700 ft
Išsisklaidę debesys ne aukštis 1300 ft
Su prošvaistėmis ne aukštis 1800 ft

METAR: ESMQ 191220Z 29011KT 9999 FEW007 SCT013 BKN018 06/04 Q1000

Laikas: 13:51 (12:51 UTC)

Prognozė

Ataskaita buvo paskelbta 31 minutes, ne 12:20 UTC
Prognozė galioja nuo 19 metu 12 UTC su 19 metu 21 UTC
Vėjas 10 kt iš Pietų/Pietvakarių
Matomumas 10 km arba daugiau
Su prošvaistėmis ne aukštis 1200 ft
Su prošvaistėmis ne aukštis 2000 ft, Liūtiniai kamuoliniai debesys.
lietus
Tapsmas
nuo 19 metu 12 UTC su 19 metu 14 UTC
Vėjas 6 kt iš Vakarų
Su prošvaistėmis ne aukštis 1500 ft

TAF: ESMQ 191220Z 1912/1921 20010KT 9999 -SHRA BKN012 BKN020CB BECMG 1912/1914 28006KT BKN015

Orai ataskaitas ir orų prognozės (METAR, TAF).

turimą stotys yra geltonos ir raudonos taškus žemėlapyje.

Perkelti pele per norėdami pamatyti stoties vardą.

Tada spustelėkite, norėdami matyti oro stebėjimo ir prognozės.

Norėdami pakeisti žemėlapį: spustelėkite ant žalios mygtukų su juodo kryžiaus žemyn,; žalią mygtuką su brūkšneliu, jei norite nutolinti; arba žalių rodyklių gretimoms žemėlapius.


METAR-TAF: